EFHK/HEL METAR and TAF weather

Enter ICAO airport designator
Station Type Date Time Source
EFHK METAR 2019/02/16 02:50 UTC NOAA

EFHK 160250Z 20009KT 0400 R04R/1000N R15/0800N R22L/0800N R04L/1100N FG VV002 01/00 Q1011 BECMG 0600


Station Type Date Time Source
EFHK Decoded METAR 2019/02/16 02:50 UTC NOAA

Helsinki-Vantaa, Finland (EFHK) 60-19N 024-58E 56M
Feb 15, 2019 - 09:50 PM EST / 2019.02.16 0250 UTC
Wind: from the SSW (200 degrees) at 10 MPH (9 KT):0
Visibility: less than 1 mile:0
Sky conditions: obscured
Weather: fog
Temperature: 33 F (1 C)
Windchill: 24 F (-4 C):1
Dew Point: 32 F (0 C)
Relative Humidity: 93%
Pressure (altimeter): 29.85 in. Hg (1011 hPa)
ob: EFHK 160250Z 20009KT 0400 R04R/1000N R15/0800N R22L/0800N R04L/1100N FG VV002 01/00 Q1011 BECMG 0600
cycle: 3

Station Type Date Time Source
EFHK TAF 2019/02/16 03:42 UTC NOAA

TAF TAF EFHK 160231Z 1603/1703 20006KT 0300 FZFG VV001
BECMG 1603/1605 9999 NSW BKN005
BECMG 1605/1607 CAVOK


Example: see airport list